createdAt,value
2022-08-03T00:04:35.625Z,54
2022-08-03T00:09:37.410Z,54
2022-08-03T00:14:39.133Z,54
2022-08-03T00:19:40.566Z,54
2022-08-03T00:24:42.355Z,56
2022-08-03T00:29:57.513Z,56
2022-08-03T00:34:57.470Z,56
2022-08-03T00:39:46.613Z,57
2022-08-03T00:44:48.775Z,57
2022-08-03T00:49:50.866Z,57
2022-08-03T00:54:52.486Z,57
2022-08-03T00:59:53.948Z,57
2022-08-03T01:04:55.663Z,57
2022-08-03T01:09:57.633Z,57
2022-08-03T01:14:59.450Z,57
2022-08-03T01:20:01.821Z,57
2022-08-03T01:25:02.965Z,57
2022-08-03T01:30:04.548Z,58
2022-08-03T01:35:06.788Z,58
2022-08-03T01:40:07.896Z,58
2022-08-03T01:45:09.615Z,59
2022-08-03T01:50:10.937Z,59
2022-08-03T01:55:12.330Z,60
2022-08-03T02:00:14.345Z,60
2022-08-03T02:05:16.017Z,59
2022-08-03T02:10:22.241Z,60
2022-08-03T02:15:18.919Z,60
2022-08-03T02:20:20.487Z,60
2022-08-03T02:25:22.068Z,60
2022-08-03T02:30:23.610Z,61
2022-08-03T02:35:25.558Z,61
2022-08-03T02:40:27.223Z,61
2022-08-03T02:45:28.512Z,62
2022-08-03T02:50:29.713Z,62
2022-08-03T02:55:31.093Z,62
2022-08-03T03:00:33.281Z,62
2022-08-03T03:05:54.091Z,62
2022-08-03T03:10:35.806Z,63
2022-08-03T03:15:37.559Z,63
2022-08-03T03:20:39.630Z,62
2022-08-03T03:25:41.356Z,62
2022-08-03T03:30:43.135Z,62
2022-08-03T03:35:45.172Z,63
2022-08-03T03:40:46.881Z,63
2022-08-03T03:45:48.780Z,63
2022-08-03T03:50:51.014Z,63
2022-08-03T03:55:57.683Z,64
2022-08-03T04:00:54.189Z,63
2022-08-03T04:05:55.844Z,63
2022-08-03T04:10:57.391Z,63
2022-08-03T04:15:58.695Z,63
2022-08-03T04:21:00.355Z,62
2022-08-03T04:26:01.791Z,63
2022-08-03T04:31:03.097Z,62
2022-08-03T04:36:04.582Z,62
2022-08-03T04:41:05.946Z,62
2022-08-03T04:46:08.076Z,63
2022-08-03T04:51:09.441Z,63
2022-08-03T04:56:11.070Z,63
2022-08-03T05:01:13.206Z,63
2022-08-03T05:06:14.578Z,63
2022-08-03T05:11:16.201Z,63
2022-08-03T05:16:18.254Z,64
2022-08-03T05:21:19.737Z,63
2022-08-03T05:26:20.918Z,63
2022-08-03T05:31:22.525Z,62
2022-08-03T05:36:24.553Z,61
2022-08-03T05:41:35.523Z,60
2022-08-03T05:46:28.497Z,59
2022-08-03T05:51:30.109Z,58
2022-08-03T05:56:31.604Z,55
2022-08-03T06:01:32.864Z,53
2022-08-03T06:06:34.115Z,52
2022-08-03T06:11:35.670Z,51
2022-08-03T06:16:37.079Z,49
2022-08-03T06:21:38.602Z,47
2022-08-03T06:26:40.384Z,45
2022-08-03T06:31:41.832Z,44
2022-08-03T06:36:43.835Z,41
2022-08-03T06:41:45.579Z,40
2022-08-03T06:46:47.662Z,40
2022-08-03T06:52:02.924Z,38
2022-08-03T06:56:51.195Z,38
2022-08-03T07:01:52.530Z,36
2022-08-03T07:06:54.351Z,36
2022-08-03T07:11:55.749Z,35
2022-08-03T07:16:56.999Z,34
2022-08-03T07:22:00.192Z,33
2022-08-03T07:27:00.506Z,32
2022-08-03T07:32:02.325Z,32
2022-08-03T07:37:03.788Z,31
2022-08-03T07:42:05.674Z,31
2022-08-03T07:47:07.060Z,30
2022-08-03T07:52:08.611Z,31
2022-08-03T07:57:10.690Z,30
2022-08-03T08:02:12.712Z,30
2022-08-03T08:07:13.977Z,31
2022-08-03T08:12:15.933Z,31
2022-08-03T08:17:17.463Z,30
2022-08-03T08:22:19.022Z,30
2022-08-03T08:27:19.904Z,30
2022-08-03T08:32:21.182Z,29
2022-08-03T08:37:23.034Z,30
2022-08-03T08:37:30.050Z,30
2022-08-03T08:42:31.980Z,30
2022-08-03T08:47:50.706Z,30
2022-08-03T08:52:35.306Z,29
2022-08-03T08:57:42.626Z,28
2022-08-03T09:02:38.899Z,29
2022-08-03T09:07:40.331Z,28
2022-08-03T09:12:42.792Z,28
2022-08-03T09:17:46.477Z,28
2022-08-03T09:22:45.657Z,28
2022-08-03T09:27:47.330Z,27
2022-08-03T09:32:49.236Z,26
2022-08-03T09:38:11.783Z,26
2022-08-03T09:42:52.688Z,25
2022-08-03T09:47:54.486Z,25
2022-08-03T09:52:56.020Z,25
2022-08-03T09:57:57.735Z,25
2022-08-03T10:02:59.257Z,25
2022-08-03T10:08:00.684Z,25
2022-08-03T10:13:02.001Z,24
2022-08-03T10:18:03.219Z,24
2022-08-03T10:23:05.169Z,26
2022-08-03T10:28:07.198Z,25
2022-08-03T10:33:10.847Z,24
2022-08-03T10:38:10.526Z,25
2022-08-03T10:43:12.356Z,24
2022-08-03T10:48:14.199Z,25
2022-08-03T10:53:16.666Z,25
2022-08-03T10:58:25.153Z,25
2022-08-03T11:03:18.840Z,25
2022-08-03T11:08:21.021Z,25
2022-08-03T11:13:22.745Z,26
2022-08-03T11:18:25.387Z,26
2022-08-03T11:24:03.920Z,26
2022-08-03T11:28:27.147Z,26
2022-08-03T11:33:28.318Z,26
2022-08-03T11:38:29.824Z,27
2022-08-03T11:43:31.741Z,26
2022-08-03T11:48:32.449Z,26
2022-08-03T11:53:41.870Z,26
2022-08-03T11:58:57.678Z,26
2022-08-03T12:03:38.130Z,26
2022-08-03T12:08:39.530Z,26
2022-08-03T12:13:57.324Z,26
2022-08-03T12:18:42.879Z,27
2022-08-03T12:23:44.910Z,26
2022-08-03T12:28:49.571Z,26
2022-08-03T12:33:48.568Z,26
2022-08-03T12:53:54.429Z,25
2022-08-03T13:14:01.629Z,24
2022-08-03T13:19:03.472Z,24
2022-08-03T13:24:05.271Z,25
2022-08-03T13:29:07.191Z,26
2022-08-03T13:34:09.200Z,25
2022-08-03T13:44:26.971Z,25
2022-08-03T13:49:14.107Z,24
2022-08-03T13:54:16.120Z,25
2022-08-03T14:04:22.008Z,25
2022-08-03T14:09:20.581Z,25
2022-08-03T14:14:22.098Z,25
2022-08-03T14:19:24.854Z,25
2022-08-03T14:24:25.816Z,25
2022-08-03T14:29:27.365Z,25
2022-08-03T14:34:29.414Z,25
2022-08-03T14:39:58.137Z,25
2022-08-03T14:44:33.023Z,25
2022-08-03T14:50:35.567Z,24
2022-08-03T14:54:36.383Z,24
2022-08-03T14:59:54.013Z,24
2022-08-03T15:04:39.889Z,24
2022-08-03T15:09:41.373Z,24
2022-08-03T15:14:42.675Z,24
2022-08-03T15:19:59.691Z,24
2022-08-03T15:24:45.809Z,24
2022-08-03T15:30:06.628Z,24
2022-08-03T15:34:50.535Z,24
2022-08-03T15:39:58.670Z,24
2022-08-03T15:44:52.376Z,24
2022-08-03T15:49:53.817Z,24
2022-08-03T15:54:55.400Z,24
2022-08-03T15:59:57.240Z,24
2022-08-03T16:04:58.838Z,24
2022-08-03T16:09:59.912Z,24
2022-08-03T16:15:01.681Z,23
2022-08-03T16:20:05.144Z,24
2022-08-03T16:25:05.106Z,24
2022-08-03T16:30:06.638Z,24
2022-08-03T16:35:08.693Z,24
2022-08-03T16:40:17.751Z,24
2022-08-03T16:45:11.486Z,24
2022-08-03T16:50:19.191Z,24
2022-08-03T16:55:15.284Z,24
2022-08-03T17:00:33.471Z,24
2022-08-03T17:05:18.965Z,24
2022-08-03T17:10:21.889Z,24
2022-08-03T17:15:37.806Z,24
2022-08-03T17:20:29.776Z,24
2022-08-03T17:25:40.087Z,24
2022-08-03T17:30:28.053Z,25
2022-08-03T17:35:34.760Z,24
2022-08-03T17:40:30.887Z,24
2022-08-03T17:45:42.338Z,24
2022-08-03T17:50:33.331Z,25
2022-08-03T17:55:51.025Z,25
2022-08-03T18:00:36.567Z,25
2022-08-03T18:10:46.785Z,26
2022-08-03T18:15:42.036Z,26
2022-08-03T18:20:45.601Z,26
2022-08-03T18:25:50.948Z,26
2022-08-03T18:30:53.173Z,26
2022-08-03T18:35:53.175Z,27
2022-08-03T18:40:50.433Z,27
2022-08-03T18:45:56.563Z,27
2022-08-03T18:50:53.940Z,28
2022-08-03T18:56:01.743Z,28
2022-08-03T19:00:57.711Z,29
2022-08-03T19:06:05.852Z,29
2022-08-03T19:11:00.989Z,30
2022-08-03T19:16:01.892Z,30
2022-08-03T19:21:03.259Z,30
2022-08-03T19:26:04.692Z,31
2022-08-03T19:31:06.530Z,31
2022-08-03T19:36:10.288Z,31
2022-08-03T19:41:08.554Z,32
2022-08-03T19:46:09.757Z,32
2022-08-03T19:51:12.070Z,33
2022-08-03T19:56:13.017Z,33
2022-08-03T20:01:19.112Z,33
2022-08-03T20:06:17.059Z,34
2022-08-03T20:11:18.222Z,34
2022-08-03T20:16:19.640Z,35
2022-08-03T20:21:21.158Z,35
2022-08-03T20:26:23.109Z,35
2022-08-03T20:31:32.164Z,36
2022-08-03T20:36:26.937Z,36
2022-08-03T20:41:28.405Z,36
2022-08-03T20:46:41.611Z,37
2022-08-03T20:51:48.928Z,37
2022-08-03T20:56:33.936Z,37
2022-08-03T21:01:36.062Z,38
2022-08-03T21:06:37.013Z,38
2022-08-03T21:11:41.692Z,39
2022-08-03T21:16:40.682Z,39
2022-08-03T21:21:42.776Z,40
2022-08-03T21:26:44.117Z,40
2022-08-03T21:31:46.184Z,40
2022-08-03T21:37:05.136Z,41
2022-08-03T21:41:49.746Z,41
2022-08-03T21:46:51.238Z,41
2022-08-03T21:51:52.954Z,41
2022-08-03T21:56:55.203Z,41
2022-08-03T22:11:59.777Z,42
2022-08-03T22:17:01.620Z,42
2022-08-03T22:22:03.222Z,42
2022-08-03T22:27:04.475Z,43
2022-08-03T22:32:05.767Z,43
2022-08-03T22:37:07.381Z,43
2022-08-03T22:42:09.599Z,44
2022-08-03T22:47:10.903Z,44
2022-08-03T22:52:12.698Z,44
2022-08-03T22:57:14.253Z,44
2022-08-03T23:02:20.065Z,45
2022-08-03T23:07:16.958Z,45
2022-08-03T23:12:18.801Z,46
2022-08-03T23:17:20.318Z,46
2022-08-03T23:22:29.772Z,46
2022-08-03T23:27:23.753Z,46
2022-08-03T23:32:25.734Z,46
2022-08-03T23:37:27.777Z,47
2022-08-03T23:42:29.570Z,47
2022-08-03T23:47:46.147Z,47
2022-08-03T23:52:33.180Z,47
2022-08-03T23:57:35.317Z,48
